Garfield, Illinois
Current Conditions -  °F | °C
As of 3:15 AM on Friday 31 Oct 2014 (Local Time) from KC75 Reporting Station
Overcast Overcast  
Wind Chill: 41°   Ceiling: 4200
Heat Index: 46°   Visibility: 10mi
Dew Point: 38°   Wind: 9mph
Humidity: 75%   Direction: 320°NW
Pressure: 30.08"   Gusts: NA
Location:  41.0632°N, 89.0208°W
Report Text: KC75 310815Z AUTO 32008KT 10SM BKN042 BKN048 OVC050 08/04 A3008 RMK AO2 T00770036
Loading
Personal Weather Stations






























Interactive Weather Map
Tropical Storm Tracking
New forecast layout! Learn more

10-Day Weather Forecast

Advertisements
Track Severe Weather on mobile